sensor_id;sensor_type;location;lat;lon;timestamp;P1;durP1;ratioP1;P2;durP2;ratioP2
79308;SDS011;68767;53.078;7.386;2023-04-16T00:02:02;73.55;;;30.35;;
79308;SDS011;68767;53.078;7.386;2023-04-16T00:04:29;78.63;;;30.80;;
79308;SDS011;68767;53.078;7.386;2023-04-16T00:06:57;71.90;;;30.65;;
79308;SDS011;68767;53.078;7.386;2023-04-16T00:09:24;75.10;;;31.38;;
79308;SDS011;68767;53.078;7.386;2023-04-16T00:11:51;79.13;;;30.25;;
79308;SDS011;68767;53.078;7.386;2023-04-16T00:14:18;80.53;;;31.65;;
79308;SDS011;68767;53.078;7.386;2023-04-16T00:16:45;80.45;;;32.63;;
79308;SDS011;68767;53.078;7.386;2023-04-16T00:19:12;81.50;;;33.45;;
79308;SDS011;68767;53.078;7.386;2023-04-16T00:21:39;80.07;;;32.53;;
79308;SDS011;68767;53.078;7.386;2023-04-16T00:24:06;79.10;;;33.05;;
79308;SDS011;68767;53.078;7.386;2023-04-16T00:26:33;76.75;;;31.27;;
79308;SDS011;68767;53.078;7.386;2023-04-16T00:29:00;74.18;;;30.13;;
79308;SDS011;68767;53.078;7.386;2023-04-16T00:31:27;75.00;;;30.63;;
79308;SDS011;68767;53.078;7.386;2023-04-16T00:33:56;70.70;;;29.70;;
79308;SDS011;68767;53.078;7.386;2023-04-16T00:36:24;70.50;;;29.15;;
79308;SDS011;68767;53.078;7.386;2023-04-16T00:38:53;71.00;;;28.75;;
79308;SDS011;68767;53.078;7.386;2023-04-16T00:41:21;76.45;;;31.35;;
79308;SDS011;68767;53.078;7.386;2023-04-16T00:43:50;69.63;;;30.52;;
79308;SDS011;68767;53.078;7.386;2023-04-16T00:46:18;76.57;;;31.33;;
79308;SDS011;68767;53.078;7.386;2023-04-16T00:48:46;68.70;;;28.40;;
79308;SDS011;68767;53.078;7.386;2023-04-16T00:51:14;64.25;;;28.08;;
79308;SDS011;68767;53.078;7.386;2023-04-16T00:53:42;66.72;;;28.55;;
79308;SDS011;68767;53.078;7.386;2023-04-16T00:56:11;75.95;;;30.90;;
79308;SDS011;68767;53.078;7.386;2023-04-16T00:58:38;75.25;;;30.67;;
79308;SDS011;68767;53.078;7.386;2023-04-16T01:01:05;66.70;;;28.23;;
79308;SDS011;68767;53.078;7.386;2023-04-16T01:03:36;68.03;;;27.38;;
79308;SDS011;68767;53.078;7.386;2023-04-16T01:06:05;67.95;;;27.90;;
79308;SDS011;68767;53.078;7.386;2023-04-16T01:08:33;64.72;;;26.83;;
79308;SDS011;68767;53.078;7.386;2023-04-16T01:11:00;73.80;;;27.80;;
79308;SDS011;68767;53.078;7.386;2023-04-16T01:13:27;68.35;;;28.40;;
79308;SDS011;68767;53.078;7.386;2023-04-16T01:15:54;59.30;;;27.00;;
79308;SDS011;68767;53.078;7.386;2023-04-16T01:18:22;68.32;;;26.50;;
79308;SDS011;68767;53.078;7.386;2023-04-16T01:20:49;66.00;;;27.80;;
79308;SDS011;68767;53.078;7.386;2023-04-16T01:23:17;64.22;;;27.05;;
79308;SDS011;68767;53.078;7.386;2023-04-16T01:25:44;68.18;;;28.35;;
79308;SDS011;68767;53.078;7.386;2023-04-16T01:28:12;73.32;;;29.65;;
79308;SDS011;68767;53.078;7.386;2023-04-16T01:30:39;70.45;;;28.30;;
79308;SDS011;68767;53.078;7.386;2023-04-16T01:33:19;72.28;;;28.00;;
79308;SDS011;68767;53.078;7.386;2023-04-16T01:35:47;70.40;;;29.35;;
79308;SDS011;68767;53.078;7.386;2023-04-16T01:38:14;73.85;;;31.40;;
79308;SDS011;68767;53.078;7.386;2023-04-16T01:40:41;79.47;;;31.85;;
79308;SDS011;68767;53.078;7.386;2023-04-16T01:43:10;79.50;;;32.20;;
79308;SDS011;68767;53.078;7.386;2023-04-16T01:45:37;81.90;;;30.80;;
79308;SDS011;68767;53.078;7.386;2023-04-16T01:48:04;75.32;;;30.85;;
79308;SDS011;68767;53.078;7.386;2023-04-16T01:50:32;87.65;;;33.47;;
79308;SDS011;68767;53.078;7.386;2023-04-16T01:52:59;78.85;;;29.90;;
79308;SDS011;68767;53.078;7.386;2023-04-16T01:55:27;79.53;;;32.03;;
79308;SDS011;68767;53.078;7.386;2023-04-16T01:57:54;85.50;;;32.35;;
79308;SDS011;68767;53.078;7.386;2023-04-16T02:00:25;86.05;;;32.40;;
79308;SDS011;68767;53.078;7.386;2023-04-16T02:02:52;83.60;;;31.98;;
79308;SDS011;68767;53.078;7.386;2023-04-16T02:05:24;81.47;;;32.38;;
79308;SDS011;68767;53.078;7.386;2023-04-16T02:07:51;81.22;;;31.10;;
79308;SDS011;68767;53.078;7.386;2023-04-16T02:10:18;67.00;;;28.67;;
79308;SDS011;68767;53.078;7.386;2023-04-16T02:12:46;75.65;;;32.00;;
79308;SDS011;68767;53.078;7.386;2023-04-16T02:15:13;70.75;;;29.50;;
79308;SDS011;68767;53.078;7.386;2023-04-16T02:17:42;71.45;;;30.65;;
79308;SDS011;68767;53.078;7.386;2023-04-16T02:20:09;78.95;;;32.83;;
79308;SDS011;68767;53.078;7.386;2023-04-16T02:22:43;72.15;;;31.25;;
79308;SDS011;68767;53.078;7.386;2023-04-16T02:25:14;70.82;;;30.33;;
79308;SDS011;68767;53.078;7.386;2023-04-16T02:27:42;68.88;;;29.60;;
79308;SDS011;68767;53.078;7.386;2023-04-16T02:30:21;73.68;;;30.35;;
79308;SDS011;68767;53.078;7.386;2023-04-16T02:32:49;71.03;;;30.98;;
79308;SDS011;68767;53.078;7.386;2023-04-16T02:35:17;73.47;;;30.88;;
79308;SDS011;68767;53.078;7.386;2023-04-16T02:37:44;70.72;;;32.13;;
79308;SDS011;68767;53.078;7.386;2023-04-16T02:40:11;62.50;;;27.75;;
79308;SDS011;68767;53.078;7.386;2023-04-16T02:42:38;73.68;;;32.47;;
79308;SDS011;68767;53.078;7.386;2023-04-16T02:45:06;72.40;;;32.10;;
79308;SDS011;68767;53.078;7.386;2023-04-16T02:47:34;68.13;;;29.85;;
79308;SDS011;68767;53.078;7.386;2023-04-16T02:50:01;66.47;;;28.67;;
79308;SDS011;68767;53.078;7.386;2023-04-16T02:52:29;71.40;;;29.35;;
79308;SDS011;68767;53.078;7.386;2023-04-16T02:54:57;69.97;;;30.08;;
79308;SDS011;68767;53.078;7.386;2023-04-16T02:57:25;76.97;;;32.47;;
79308;SDS011;68767;53.078;7.386;2023-04-16T02:59:52;78.57;;;31.45;;
79308;SDS011;68767;53.078;7.386;2023-04-16T03:02:19;80.50;;;30.15;;
79308;SDS011;68767;53.078;7.386;2023-04-16T03:04:46;73.28;;;31.65;;
79308;SDS011;68767;53.078;7.386;2023-04-16T03:07:13;80.32;;;34.20;;
79308;SDS011;68767;53.078;7.386;2023-04-16T03:09:40;79.97;;;33.75;;
79308;SDS011;68767;53.078;7.386;2023-04-16T03:12:07;81.85;;;32.78;;
79308;SDS011;68767;53.078;7.386;2023-04-16T03:14:34;89.13;;;37.13;;
79308;SDS011;68767;53.078;7.386;2023-04-16T03:17:01;76.72;;;33.97;;
79308;SDS011;68767;53.078;7.386;2023-04-16T03:19:28;91.00;;;37.00;;
79308;SDS011;68767;53.078;7.386;2023-04-16T03:21:55;78.30;;;34.63;;
79308;SDS011;68767;53.078;7.386;2023-04-16T03:24:22;85.68;;;35.10;;
79308;SDS011;68767;53.078;7.386;2023-04-16T03:26:49;87.63;;;37.97;;
79308;SDS011;68767;53.078;7.386;2023-04-16T03:29:20;91.75;;;38.10;;
79308;SDS011;68767;53.078;7.386;2023-04-16T03:31:47;97.80;;;40.38;;
79308;SDS011;68767;53.078;7.386;2023-04-16T03:34:14;85.53;;;34.67;;
79308;SDS011;68767;53.078;7.386;2023-04-16T03:36:41;87.05;;;36.65;;
79308;SDS011;68767;53.078;7.386;2023-04-16T03:39:08;84.25;;;34.63;;
79308;SDS011;68767;53.078;7.386;2023-04-16T03:41:35;79.38;;;35.70;;
79308;SDS011;68767;53.078;7.386;2023-04-16T03:44:03;87.90;;;34.47;;
79308;SDS011;68767;53.078;7.386;2023-04-16T03:46:34;74.70;;;34.28;;
79308;SDS011;68767;53.078;7.386;2023-04-16T03:49:01;76.40;;;32.55;;
79308;SDS011;68767;53.078;7.386;2023-04-16T03:51:28;84.53;;;33.67;;
79308;SDS011;68767;53.078;7.386;2023-04-16T03:53:55;71.55;;;31.42;;
79308;SDS011;68767;53.078;7.386;2023-04-16T03:56:24;78.75;;;32.78;;
79308;SDS011;68767;53.078;7.386;2023-04-16T03:58:52;81.30;;;32.70;;
79308;SDS011;68767;53.078;7.386;2023-04-16T04:01:18;74.88;;;31.75;;
79308;SDS011;68767;53.078;7.386;2023-04-16T04:03:45;72.40;;;30.95;;
79308;SDS011;68767;53.078;7.386;2023-04-16T04:06:14;73.95;;;33.05;;
79308;SDS011;68767;53.078;7.386;2023-04-16T04:08:41;73.07;;;33.83;;
79308;SDS011;68767;53.078;7.386;2023-04-16T04:11:08;80.82;;;34.70;;
79308;SDS011;68767;53.078;7.386;2023-04-16T04:13:37;76.55;;;31.70;;
79308;SDS011;68767;53.078;7.386;2023-04-16T04:16:04;75.93;;;32.33;;
79308;SDS011;68767;53.078;7.386;2023-04-16T04:18:31;78.18;;;33.70;;
79308;SDS011;68767;53.078;7.386;2023-04-16T04:20:58;73.28;;;31.95;;
79308;SDS011;68767;53.078;7.386;2023-04-16T04:23:28;67.00;;;32.13;;
79308;SDS011;68767;53.078;7.386;2023-04-16T04:25:55;64.35;;;29.35;;
79308;SDS011;68767;53.078;7.386;2023-04-16T04:28:23;70.32;;;31.35;;
79308;SDS011;68767;53.078;7.386;2023-04-16T04:30:50;68.10;;;28.98;;
79308;SDS011;68767;53.078;7.386;2023-04-16T04:33:17;65.88;;;29.88;;
79308;SDS011;68767;53.078;7.386;2023-04-16T04:35:46;63.97;;;29.45;;
79308;SDS011;68767;53.078;7.386;2023-04-16T04:38:13;71.22;;;29.80;;
79308;SDS011;68767;53.078;7.386;2023-04-16T04:40:41;62.60;;;28.27;;
79308;SDS011;68767;53.078;7.386;2023-04-16T04:43:08;67.75;;;29.10;;
79308;SDS011;68767;53.078;7.386;2023-04-16T04:45:35;65.57;;;28.20;;
79308;SDS011;68767;53.078;7.386;2023-04-16T04:48:03;61.10;;;25.88;;
79308;SDS011;68767;53.078;7.386;2023-04-16T04:50:30;66.85;;;28.13;;
79308;SDS011;68767;53.078;7.386;2023-04-16T04:52:57;63.88;;;29.17;;
79308;SDS011;68767;53.078;7.386;2023-04-16T04:55:25;68.85;;;29.45;;
79308;SDS011;68767;53.078;7.386;2023-04-16T04:57:52;66.68;;;28.23;;
79308;SDS011;68767;53.078;7.386;2023-04-16T05:00:19;65.90;;;29.70;;
79308;SDS011;68767;53.078;7.386;2023-04-16T05:02:52;62.40;;;27.85;;
79308;SDS011;68767;53.078;7.386;2023-04-16T05:05:19;61.38;;;27.15;;
79308;SDS011;68767;53.078;7.386;2023-04-16T05:07:46;62.05;;;26.92;;
79308;SDS011;68767;53.078;7.386;2023-04-16T05:10:13;60.15;;;28.35;;
79308;SDS011;68767;53.078;7.386;2023-04-16T05:12:40;55.45;;;26.00;;
79308;SDS011;68767;53.078;7.386;2023-04-16T05:15:07;55.88;;;26.98;;
79308;SDS011;68767;53.078;7.386;2023-04-16T05:17:34;59.00;;;26.33;;
79308;SDS011;68767;53.078;7.386;2023-04-16T05:20:01;55.45;;;26.98;;
79308;SDS011;68767;53.078;7.386;2023-04-16T05:22:28;66.00;;;31.92;;
79308;SDS011;68767;53.078;7.386;2023-04-16T05:24:55;61.30;;;27.48;;
79308;SDS011;68767;53.078;7.386;2023-04-16T05:27:21;60.65;;;27.20;;
79308;SDS011;68767;53.078;7.386;2023-04-16T05:29:48;59.95;;;26.65;;
79308;SDS011;68767;53.078;7.386;2023-04-16T05:32:15;49.72;;;24.60;;
79308;SDS011;68767;53.078;7.386;2023-04-16T05:34:42;52.55;;;25.38;;
79308;SDS011;68767;53.078;7.386;2023-04-16T05:37:09;55.53;;;26.80;;
79308;SDS011;68767;53.078;7.386;2023-04-16T05:39:36;49.85;;;25.52;;
79308;SDS011;68767;53.078;7.386;2023-04-16T05:42:03;48.47;;;25.30;;
79308;SDS011;68767;53.078;7.386;2023-04-16T05:44:30;49.30;;;23.80;;
79308;SDS011;68767;53.078;7.386;2023-04-16T05:46:57;50.45;;;24.67;;
79308;SDS011;68767;53.078;7.386;2023-04-16T05:49:24;49.20;;;23.83;;
79308;SDS011;68767;53.078;7.386;2023-04-16T05:51:50;56.03;;;24.58;;
79308;SDS011;68767;53.078;7.386;2023-04-16T05:54:17;47.97;;;22.88;;
79308;SDS011;68767;53.078;7.386;2023-04-16T05:56:44;51.25;;;24.88;;
79308;SDS011;68767;53.078;7.386;2023-04-16T05:59:11;54.00;;;26.17;;
79308;SDS011;68767;53.078;7.386;2023-04-16T06:01:38;49.60;;;23.65;;
79308;SDS011;68767;53.078;7.386;2023-04-16T06:04:06;47.80;;;22.27;;
79308;SDS011;68767;53.078;7.386;2023-04-16T06:06:33;51.90;;;23.80;;
79308;SDS011;68767;53.078;7.386;2023-04-16T06:09:02;48.78;;;23.90;;
79308;SDS011;68767;53.078;7.386;2023-04-16T06:11:29;46.78;;;21.92;;
79308;SDS011;68767;53.078;7.386;2023-04-16T06:13:56;45.38;;;22.88;;
79308;SDS011;68767;53.078;7.386;2023-04-16T06:16:23;48.17;;;21.58;;
79308;SDS011;68767;53.078;7.386;2023-04-16T06:18:50;44.85;;;22.25;;
79308;SDS011;68767;53.078;7.386;2023-04-16T06:21:17;46.33;;;24.25;;
79308;SDS011;68767;53.078;7.386;2023-04-16T06:23:44;43.58;;;22.70;;
79308;SDS011;68767;53.078;7.386;2023-04-16T06:26:11;45.25;;;22.85;;
79308;SDS011;68767;53.078;7.386;2023-04-16T06:28:38;44.85;;;21.85;;
79308;SDS011;68767;53.078;7.386;2023-04-16T06:31:05;48.95;;;22.85;;
79308;SDS011;68767;53.078;7.386;2023-04-16T06:33:32;46.33;;;21.42;;
79308;SDS011;68767;53.078;7.386;2023-04-16T06:35:58;44.63;;;21.98;;
79308;SDS011;68767;53.078;7.386;2023-04-16T06:38:25;36.25;;;19.38;;
79308;SDS011;68767;53.078;7.386;2023-04-16T06:40:52;38.92;;;18.60;;
79308;SDS011;68767;53.078;7.386;2023-04-16T06:43:19;31.73;;;17.33;;
79308;SDS011;68767;53.078;7.386;2023-04-16T06:45:47;37.88;;;19.77;;
79308;SDS011;68767;53.078;7.386;2023-04-16T06:48:13;38.58;;;18.75;;
79308;SDS011;68767;53.078;7.386;2023-04-16T06:50:40;33.47;;;17.73;;
79308;SDS011;68767;53.078;7.386;2023-04-16T06:53:07;37.92;;;18.92;;
79308;SDS011;68767;53.078;7.386;2023-04-16T06:55:34;37.80;;;18.50;;
79308;SDS011;68767;53.078;7.386;2023-04-16T06:58:01;31.73;;;18.73;;
79308;SDS011;68767;53.078;7.386;2023-04-16T07:00:29;31.65;;;17.75;;
79308;SDS011;68767;53.078;7.386;2023-04-16T07:02:55;36.85;;;18.13;;
79308;SDS011;68767;53.078;7.386;2023-04-16T07:05:24;36.20;;;17.20;;
79308;SDS011;68767;53.078;7.386;2023-04-16T07:07:51;30.30;;;16.75;;
79308;SDS011;68767;53.078;7.386;2023-04-16T07:10:18;31.15;;;16.83;;
79308;SDS011;68767;53.078;7.386;2023-04-16T07:12:45;30.05;;;15.93;;
79308;SDS011;68767;53.078;7.386;2023-04-16T07:15:12;29.27;;;16.15;;
79308;SDS011;68767;53.078;7.386;2023-04-16T07:17:38;32.05;;;17.30;;
79308;SDS011;68767;53.078;7.386;2023-04-16T07:20:06;33.40;;;16.23;;
79308;SDS011;68767;53.078;7.386;2023-04-16T07:22:33;30.80;;;16.70;;
79308;SDS011;68767;53.078;7.386;2023-04-16T07:25:00;32.55;;;17.08;;
79308;SDS011;68767;53.078;7.386;2023-04-16T07:27:27;30.15;;;16.10;;
79308;SDS011;68767;53.078;7.386;2023-04-16T07:29:54;29.88;;;17.50;;
79308;SDS011;68767;53.078;7.386;2023-04-16T07:32:21;32.10;;;17.20;;
79308;SDS011;68767;53.078;7.386;2023-04-16T07:34:48;32.38;;;17.60;;
79308;SDS011;68767;53.078;7.386;2023-04-16T07:37:15;32.42;;;16.58;;
79308;SDS011;68767;53.078;7.386;2023-04-16T07:39:41;36.10;;;17.02;;
79308;SDS011;68767;53.078;7.386;2023-04-16T07:42:08;29.45;;;15.68;;
79308;SDS011;68767;53.078;7.386;2023-04-16T07:44:36;31.20;;;16.52;;
79308;SDS011;68767;53.078;7.386;2023-04-16T07:47:02;27.00;;;14.63;;
79308;SDS011;68767;53.078;7.386;2023-04-16T07:49:31;29.38;;;15.85;;
79308;SDS011;68767;53.078;7.386;2023-04-16T07:51:58;28.08;;;15.48;;
79308;SDS011;68767;53.078;7.386;2023-04-16T07:54:24;29.00;;;15.38;;
79308;SDS011;68767;53.078;7.386;2023-04-16T07:56:54;30.48;;;15.88;;
79308;SDS011;68767;53.078;7.386;2023-04-16T07:59:21;30.63;;;17.05;;
79308;SDS011;68767;53.078;7.386;2023-04-16T08:01:51;28.13;;;15.30;;
79308;SDS011;68767;53.078;7.386;2023-04-16T08:04:19;30.45;;;15.35;;
79308;SDS011;68767;53.078;7.386;2023-04-16T08:06:51;29.73;;;15.82;;
79308;SDS011;68767;53.078;7.386;2023-04-16T08:09:18;26.10;;;13.30;;
79308;SDS011;68767;53.078;7.386;2023-04-16T08:11:46;28.75;;;16.00;;
79308;SDS011;68767;53.078;7.386;2023-04-16T08:14:15;27.98;;;15.10;;
79308;SDS011;68767;53.078;7.386;2023-04-16T08:16:43;25.17;;;13.75;;
79308;SDS011;68767;53.078;7.386;2023-04-16T08:19:09;27.45;;;13.77;;
79308;SDS011;68767;53.078;7.386;2023-04-16T08:21:37;28.17;;;13.93;;
79308;SDS011;68767;53.078;7.386;2023-04-16T08:24:04;25.27;;;14.05;;
79308;SDS011;68767;53.078;7.386;2023-04-16T08:26:31;27.20;;;14.20;;
79308;SDS011;68767;53.078;7.386;2023-04-16T08:28:58;30.25;;;15.55;;
79308;SDS011;68767;53.078;7.386;2023-04-16T08:31:25;30.77;;;15.85;;
79308;SDS011;68767;53.078;7.386;2023-04-16T08:33:52;25.08;;;14.00;;
79308;SDS011;68767;53.078;7.386;2023-04-16T08:36:19;26.75;;;14.68;;
79308;SDS011;68767;53.078;7.386;2023-04-16T08:38:46;25.60;;;13.40;;
79308;SDS011;68767;53.078;7.386;2023-04-16T08:41:13;28.73;;;14.90;;
79308;SDS011;68767;53.078;7.386;2023-04-16T08:43:43;28.73;;;13.10;;
79308;SDS011;68767;53.078;7.386;2023-04-16T08:46:14;27.15;;;13.98;;
79308;SDS011;68767;53.078;7.386;2023-04-16T08:48:43;27.70;;;14.50;;
79308;SDS011;68767;53.078;7.386;2023-04-16T08:51:14;27.65;;;14.00;;
79308;SDS011;68767;53.078;7.386;2023-04-16T08:53:58;24.67;;;13.45;;
79308;SDS011;68767;53.078;7.386;2023-04-16T08:56:31;25.48;;;13.45;;
79308;SDS011;68767;53.078;7.386;2023-04-16T08:59:02;28.42;;;13.88;;
79308;SDS011;68767;53.078;7.386;2023-04-16T09:01:32;25.60;;;13.98;;
79308;SDS011;68767;53.078;7.386;2023-04-16T09:04:00;27.13;;;13.32;;
79308;SDS011;68767;53.078;7.386;2023-04-16T09:06:29;25.77;;;13.75;;
79308;SDS011;68767;53.078;7.386;2023-04-16T09:08:57;25.77;;;13.88;;
79308;SDS011;68767;53.078;7.386;2023-04-16T09:11:25;27.33;;;14.85;;
79308;SDS011;68767;53.078;7.386;2023-04-16T09:13:52;26.05;;;14.02;;
79308;SDS011;68767;53.078;7.386;2023-04-16T09:16:19;28.75;;;14.52;;
79308;SDS011;68767;53.078;7.386;2023-04-16T09:18:46;24.65;;;14.48;;
79308;SDS011;68767;53.078;7.386;2023-04-16T09:21:13;25.02;;;13.65;;
79308;SDS011;68767;53.078;7.386;2023-04-16T09:23:40;26.70;;;14.32;;
79308;SDS011;68767;53.078;7.386;2023-04-16T09:26:07;26.17;;;14.18;;
79308;SDS011;68767;53.078;7.386;2023-04-16T09:28:41;31.48;;;14.43;;
79308;SDS011;68767;53.078;7.386;2023-04-16T09:33:39;27.67;;;14.43;;
79308;SDS011;68767;53.078;7.386;2023-04-16T09:36:07;24.17;;;13.48;;
79308;SDS011;68767;53.078;7.386;2023-04-16T09:38:47;27.90;;;14.82;;
79308;SDS011;68767;53.078;7.386;2023-04-16T09:41:15;23.70;;;13.88;;
79308;SDS011;68767;53.078;7.386;2023-04-16T09:43:55;24.08;;;13.65;;
79308;SDS011;68767;53.078;7.386;2023-04-16T09:46:33;33.03;;;15.88;;
79308;SDS011;68767;53.078;7.386;2023-04-16T09:49:08;26.23;;;14.48;;
79308;SDS011;68767;53.078;7.386;2023-04-16T09:51:43;30.35;;;15.98;;
79308;SDS011;68767;53.078;7.386;2023-04-16T09:54:13;26.30;;;14.00;;
79308;SDS011;68767;53.078;7.386;2023-04-16T09:56:42;27.30;;;15.07;;
79308;SDS011;68767;53.078;7.386;2023-04-16T09:59:19;30.45;;;15.38;;
79308;SDS011;68767;53.078;7.386;2023-04-16T10:01:47;30.77;;;15.20;;
79308;SDS011;68767;53.078;7.386;2023-04-16T10:04:47;25.90;;;14.55;;
79308;SDS011;68767;53.078;7.386;2023-04-16T10:07:16;24.98;;;14.68;;
79308;SDS011;68767;53.078;7.386;2023-04-16T10:09:45;23.80;;;14.73;;
79308;SDS011;68767;53.078;7.386;2023-04-16T10:12:14;24.25;;;13.80;;
79308;SDS011;68767;53.078;7.386;2023-04-16T10:14:41;24.05;;;14.50;;
79308;SDS011;68767;53.078;7.386;2023-04-16T10:17:08;27.75;;;14.80;;
79308;SDS011;68767;53.078;7.386;2023-04-16T10:19:36;26.98;;;14.35;;
79308;SDS011;68767;53.078;7.386;2023-04-16T10:22:03;24.45;;;13.40;;
79308;SDS011;68767;53.078;7.386;2023-04-16T10:24:31;25.52;;;13.73;;
79308;SDS011;68767;53.078;7.386;2023-04-16T10:26:59;24.83;;;14.48;;
79308;SDS011;68767;53.078;7.386;2023-04-16T10:29:27;27.30;;;13.55;;
79308;SDS011;68767;53.078;7.386;2023-04-16T10:31:55;26.45;;;13.98;;
79308;SDS011;68767;53.078;7.386;2023-04-16T10:34:23;29.15;;;15.73;;
79308;SDS011;68767;53.078;7.386;2023-04-16T10:36:52;23.48;;;13.35;;
79308;SDS011;68767;53.078;7.386;2023-04-16T10:39:20;26.23;;;14.35;;
79308;SDS011;68767;53.078;7.386;2023-04-16T10:44:17;25.73;;;13.98;;
79308;SDS011;68767;53.078;7.386;2023-04-16T10:46:45;27.75;;;14.13;;
79308;SDS011;68767;53.078;7.386;2023-04-16T10:51:51;25.35;;;14.32;;
79308;SDS011;68767;53.078;7.386;2023-04-16T10:54:26;26.05;;;13.02;;
79308;SDS011;68767;53.078;7.386;2023-04-16T10:56:58;25.10;;;13.73;;
79308;SDS011;68767;53.078;7.386;2023-04-16T10:59:30;29.70;;;13.60;;
79308;SDS011;68767;53.078;7.386;2023-04-16T11:02:01;26.20;;;13.77;;
79308;SDS011;68767;53.078;7.386;2023-04-16T11:04:34;27.17;;;12.70;;
79308;SDS011;68767;53.078;7.386;2023-04-16T11:07:05;24.08;;;14.27;;
79308;SDS011;68767;53.078;7.386;2023-04-16T11:12:18;29.55;;;14.77;;
79308;SDS011;68767;53.078;7.386;2023-04-16T11:14:51;25.48;;;14.25;;
79308;SDS011;68767;53.078;7.386;2023-04-16T11:17:20;23.95;;;13.10;;
79308;SDS011;68767;53.078;7.386;2023-04-16T11:19:47;25.60;;;14.18;;
79308;SDS011;68767;53.078;7.386;2023-04-16T11:22:15;25.02;;;13.80;;
79308;SDS011;68767;53.078;7.386;2023-04-16T11:24:43;21.08;;;12.35;;
79308;SDS011;68767;53.078;7.386;2023-04-16T11:27:12;26.02;;;13.07;;
79308;SDS011;68767;53.078;7.386;2023-04-16T11:29:40;26.15;;;12.70;;
79308;SDS011;68767;53.078;7.386;2023-04-16T11:32:07;23.50;;;11.75;;
79308;SDS011;68767;53.078;7.386;2023-04-16T11:34:41;21.20;;;11.55;;
79308;SDS011;68767;53.078;7.386;2023-04-16T11:37:10;24.38;;;12.73;;
79308;SDS011;68767;53.078;7.386;2023-04-16T11:39:47;23.90;;;12.80;;
79308;SDS011;68767;53.078;7.386;2023-04-16T11:42:18;24.10;;;12.20;;
79308;SDS011;68767;53.078;7.386;2023-04-16T11:44:52;19.20;;;11.52;;
79308;SDS011;68767;53.078;7.386;2023-04-16T11:47:21;24.42;;;12.25;;
79308;SDS011;68767;53.078;7.386;2023-04-16T11:49:49;23.10;;;11.93;;
79308;SDS011;68767;53.078;7.386;2023-04-16T11:54:59;24.20;;;11.70;;
79308;SDS011;68767;53.078;7.386;2023-04-16T11:57:26;20.60;;;11.43;;
79308;SDS011;68767;53.078;7.386;2023-04-16T11:59:57;24.15;;;11.98;;
79308;SDS011;68767;53.078;7.386;2023-04-16T12:02:44;23.13;;;11.20;;
79308;SDS011;68767;53.078;7.386;2023-04-16T12:05:31;20.92;;;11.52;;
79308;SDS011;68767;53.078;7.386;2023-04-16T12:08:01;25.80;;;11.82;;
79308;SDS011;68767;53.078;7.386;2023-04-16T12:10:30;28.15;;;13.95;;
79308;SDS011;68767;53.078;7.386;2023-04-16T12:13:10;21.17;;;10.85;;
79308;SDS011;68767;53.078;7.386;2023-04-16T12:15:54;18.92;;;11.60;;
79308;SDS011;68767;53.078;7.386;2023-04-16T12:18:23;25.10;;;11.55;;
79308;SDS011;68767;53.078;7.386;2023-04-16T12:20:54;22.80;;;12.05;;
79308;SDS011;68767;53.078;7.386;2023-04-16T12:23:24;20.42;;;9.95;;
79308;SDS011;68767;53.078;7.386;2023-04-16T12:25:53;22.65;;;10.43;;
79308;SDS011;68767;53.078;7.386;2023-04-16T12:28:31;19.02;;;10.20;;
79308;SDS011;68767;53.078;7.386;2023-04-16T12:30:59;21.05;;;10.27;;
79308;SDS011;68767;53.078;7.386;2023-04-16T12:33:27;17.40;;;10.25;;
79308;SDS011;68767;53.078;7.386;2023-04-16T12:35:54;17.08;;;9.73;;
79308;SDS011;68767;53.078;7.386;2023-04-16T12:38:22;21.77;;;10.10;;
79308;SDS011;68767;53.078;7.386;2023-04-16T12:40:50;18.27;;;9.63;;
79308;SDS011;68767;53.078;7.386;2023-04-16T12:43:17;21.73;;;9.93;;
79308;SDS011;68767;53.078;7.386;2023-04-16T12:45:45;17.23;;;10.38;;
79308;SDS011;68767;53.078;7.386;2023-04-16T12:48:12;17.55;;;9.93;;
79308;SDS011;68767;53.078;7.386;2023-04-16T12:50:39;17.27;;;9.43;;
79308;SDS011;68767;53.078;7.386;2023-04-16T12:53:06;17.17;;;10.02;;
79308;SDS011;68767;53.078;7.386;2023-04-16T12:55:33;19.63;;;10.18;;
79308;SDS011;68767;53.078;7.386;2023-04-16T12:57:59;21.17;;;10.18;;
79308;SDS011;68767;53.078;7.386;2023-04-16T13:00:27;22.38;;;10.75;;
79308;SDS011;68767;53.078;7.386;2023-04-16T13:02:54;20.33;;;10.68;;
79308;SDS011;68767;53.078;7.386;2023-04-16T13:05:21;29.27;;;12.77;;
79308;SDS011;68767;53.078;7.386;2023-04-16T13:07:48;26.40;;;12.30;;
79308;SDS011;68767;53.078;7.386;2023-04-16T13:10:15;25.80;;;11.82;;
79308;SDS011;68767;53.078;7.386;2023-04-16T13:12:42;24.27;;;11.70;;
79308;SDS011;68767;53.078;7.386;2023-04-16T13:15:09;25.17;;;11.75;;
79308;SDS011;68767;53.078;7.386;2023-04-16T13:17:36;22.98;;;11.65;;
79308;SDS011;68767;53.078;7.386;2023-04-16T13:20:04;24.63;;;12.30;;
79308;SDS011;68767;53.078;7.386;2023-04-16T13:22:31;25.33;;;11.98;;
79308;SDS011;68767;53.078;7.386;2023-04-16T13:24:58;25.40;;;13.05;;
79308;SDS011;68767;53.078;7.386;2023-04-16T13:27:25;23.70;;;11.15;;
79308;SDS011;68767;53.078;7.386;2023-04-16T13:29:52;24.52;;;12.52;;
79308;SDS011;68767;53.078;7.386;2023-04-16T13:32:19;25.10;;;12.60;;
79308;SDS011;68767;53.078;7.386;2023-04-16T13:34:46;22.35;;;12.00;;
79308;SDS011;68767;53.078;7.386;2023-04-16T13:37:13;26.13;;;12.25;;
79308;SDS011;68767;53.078;7.386;2023-04-16T13:39:40;24.95;;;12.32;;
79308;SDS011;68767;53.078;7.386;2023-04-16T13:42:07;24.23;;;13.57;;
79308;SDS011;68767;53.078;7.386;2023-04-16T13:44:34;25.90;;;13.32;;
79308;SDS011;68767;53.078;7.386;2023-04-16T13:47:01;25.30;;;12.15;;
79308;SDS011;68767;53.078;7.386;2023-04-16T13:49:28;29.02;;;12.98;;
79308;SDS011;68767;53.078;7.386;2023-04-16T13:51:55;26.05;;;12.45;;
79308;SDS011;68767;53.078;7.386;2023-04-16T13:54:22;24.25;;;11.85;;
79308;SDS011;68767;53.078;7.386;2023-04-16T13:56:49;21.50;;;12.18;;
79308;SDS011;68767;53.078;7.386;2023-04-16T13:59:16;27.33;;;13.32;;
79308;SDS011;68767;53.078;7.386;2023-04-16T14:01:43;24.00;;;13.80;;
79308;SDS011;68767;53.078;7.386;2023-04-16T14:04:11;22.55;;;13.18;;
79308;SDS011;68767;53.078;7.386;2023-04-16T14:06:37;28.58;;;12.43;;
79308;SDS011;68767;53.078;7.386;2023-04-16T14:09:04;28.42;;;12.98;;
79308;SDS011;68767;53.078;7.386;2023-04-16T14:11:31;28.58;;;12.70;;
79308;SDS011;68767;53.078;7.386;2023-04-16T14:13:58;27.02;;;12.75;;
79308;SDS011;68767;53.078;7.386;2023-04-16T14:16:25;33.33;;;14.27;;
79308;SDS011;68767;53.078;7.386;2023-04-16T14:18:53;30.33;;;13.43;;
79308;SDS011;68767;53.078;7.386;2023-04-16T14:21:19;31.17;;;14.40;;
79308;SDS011;68767;53.078;7.386;2023-04-16T14:23:46;29.20;;;13.55;;
79308;SDS011;68767;53.078;7.386;2023-04-16T14:26:13;32.38;;;15.07;;
79308;SDS011;68767;53.078;7.386;2023-04-16T14:28:41;33.97;;;15.45;;
79308;SDS011;68767;53.078;7.386;2023-04-16T14:31:07;23.25;;;12.35;;
79308;SDS011;68767;53.078;7.386;2023-04-16T14:33:34;24.40;;;13.15;;
79308;SDS011;68767;53.078;7.386;2023-04-16T14:36:02;23.00;;;12.10;;
79308;SDS011;68767;53.078;7.386;2023-04-16T14:38:29;28.17;;;13.38;;
79308;SDS011;68767;53.078;7.386;2023-04-16T14:40:56;23.95;;;12.65;;